Innisfail, Canada
Current Conditions -  °F | °C
As of 7:00 AM on Saturday 25 Oct 2014 (Local Time) from CYQF Reporting Station
Overcast Overcast  
Wind Chill: 23°   Ceiling: 14000
Heat Index: 23°   Visibility: 15mi
Dew Point: 19°   Wind: 3mph
Humidity: 86%   Direction: 170°S
Pressure: 30"   Gusts: NA
Location:  52.03°N, 113.95°W
Report Text: CYQF 251300Z 17003KT 15SM OVC140 M05/M07 A3000 RMK AC8 SLP198
Loading
Personal Weather Stations






























Interactive Weather Map
Tropical Storm Tracking
New forecast layout! Learn more

10-Day Weather Forecast

Advertisements
Track Severe Weather on mobile